Time;durP1;ratioP1;P1;durP2;ratioP2;P2;SDS_P1;SDS_P2;PMS_P1;PMS_P2;Temp;Humidity;BMP_temperature;BMP_pressure;BME280_temperature;BME280_humidity;BME280_pressure;Samples;Min_cycle;Max_cycle;Signal;HPM_P1;HPM_P2
2022/10/10 00:01:59;;;;;;;9.53;9.03;;;;;;;15.31;100.00;149886.38;5114480;28;20209;-63
2022/10/10 00:04:26;;;;;;;10.77;10.03;;;;;;;15.30;100.00;149882.56;5132697;28;20354;-63
2022/10/10 00:06:53;;;;;;;10.33;9.57;;;;;;;15.34;100.00;149892.69;5132522;28;20616;-63
2022/10/10 00:09:21;;;;;;;11.00;10.10;;;;;;;15.27;100.00;149874.94;5132483;28;20206;-63
2022/10/10 00:11:48;;;;;;;11.90;9.57;;;;;;;15.21;100.00;149859.72;5132345;28;20187;-62
2022/10/10 00:14:15;;;;;;;10.50;9.53;;;;;;;15.09;100.00;149830.53;5132589;28;20659;-62
2022/10/10 00:16:42;;;;;;;11.87;10.60;;;;;;;15.19;100.00;149854.66;5132486;28;20186;-63
2022/10/10 00:19:09;;;;;;;11.10;10.20;;;;;;;15.16;100.00;149848.28;5132506;28;20640;-62
2022/10/10 00:21:36;;;;;;;11.60;10.43;;;;;;;14.84;100.00;149768.41;5131982;28;20234;-63
2022/10/10 00:24:04;;;;;;;10.40;9.90;;;;;;;15.06;100.00;149822.94;5132131;28;20189;-64
2022/10/10 00:26:32;;;;;;;11.00;10.20;;;;;;;15.19;100.00;149855.88;5132446;28;20209;-63
2022/10/10 00:28:59;;;;;;;10.87;10.03;;;;;;;15.02;100.00;149814.03;5131972;28;20238;-63
2022/10/10 00:31:26;;;;;;;12.93;10.70;;;;;;;15.23;100.00;149864.81;5132142;28;20251;-63
2022/10/10 00:33:53;;;;;;;11.00;10.20;;;;;;;15.02;100.00;149814.03;5132059;27;20191;-63
2022/10/10 00:36:20;;;;;;;11.40;10.40;;;;;;;14.96;100.00;149797.56;5134800;27;20186;-63
2022/10/10 00:38:47;;;;;;;10.77;9.70;;;;;;;14.96;100.00;149797.56;5136055;27;20630;-63
2022/10/10 00:41:14;;;;;;;10.63;9.77;;;;;;;14.90;100.00;141402.13;5136098;27;20187;-62
2022/10/10 00:43:42;;;;;;;10.60;9.77;;;;;;;14.84;100.00;139220.63;5135772;27;20669;-64
2022/10/10 00:46:09;;;;;;;10.40;9.53;;;;;;;14.88;100.00;133013.59;5135556;27;20185;-62
2022/10/10 00:48:39;;;;;;;11.83;10.70;;;;;;;14.92;100.00;134027.56;5135560;27;20203;-63
2022/10/10 00:51:11;;;;;;;12.47;10.63;;;;;;;14.86;100.00;128329.88;5135777;27;20648;-64
2022/10/10 00:53:42;;;;;;;11.97;11.07;;;;;;;14.75;100.00;126969.06;5135487;27;20183;-63
2022/10/10 00:56:10;;;;;;;15.47;10.33;;;;;;;14.87;100.00;127996.91;5135739;27;20197;-63
2022/10/10 00:58:41;;;;;;;13.33;10.57;;;;;;;14.85;100.00;119984.56;5135386;27;20179;-64
2022/10/10 01:01:10;;;;;;;11.40;10.70;;;;;;;14.81;100.00;118977.75;5135605;27;20209;-63
2022/10/10 01:03:37;;;;;;;10.97;10.20;;;;;;;14.78;100.00;115973.56;5135571;27;20187;-63
2022/10/10 01:06:04;;;;;;;12.13;10.97;;;;;;;14.84;100.00;113989.50;5135494;27;20213;-63
2022/10/10 01:08:31;;;;;;;12.47;11.47;;;;;;;14.89;100.00;118992.91;5135265;27;20198;-63
2022/10/10 01:11:10;;;;;;;14.93;11.20;;;;;;;14.93;100.00;120335.22;5135216;27;20191;-63
2022/10/10 01:13:46;;;;;;;11.90;10.77;;;;;;;14.77;100.00;120635.84;5135055;27;20179;-64
2022/10/10 01:16:21;;;;;;;12.23;10.93;;;;;;;14.97;100.00;123345.16;5135057;27;20557;-62
2022/10/10 01:18:57;;;;;;;11.33;10.60;;;;;;;14.99;100.00;128024.03;5135191;27;20269;-62
2022/10/10 01:21:32;;;;;;;12.67;11.00;;;;;;;14.97;100.00;126683.50;5135359;27;20233;-63
2022/10/10 01:24:19;;;;;;;11.73;10.83;;;;;;;14.97;100.00;126015.56;5135141;27;20579;-63
2022/10/10 01:27:08;;;;;;;11.90;11.23;;;;;;;14.99;100.00;127020.69;5135196;27;20204;-63
2022/10/10 01:29:39;;;;;;;11.80;11.10;;;;;;;14.96;100.00;126013.44;5134565;27;20203;-64
2022/10/10 01:32:14;;;;;;;11.03;10.33;;;;;;;14.98;100.00;125682.69;5134676;27;20197;-63
2022/10/10 01:34:49;;;;;;;12.77;11.50;;;;;;;15.01;100.00;129698.38;5134581;27;20190;-63
2022/10/10 01:37:19;;;;;;;12.30;11.30;;;;;;;14.94;100.00;129682.97;5135013;27;20193;-63
2022/10/10 01:39:54;;;;;;;19.10;12.10;;;;;;;14.87;100.00;128332.06;5135134;27;20193;-64
2022/10/10 01:42:25;;;;;;;13.70;10.90;;;;;;;14.91;100.00;125001.22;5134875;27;20193;-63
2022/10/10 01:44:54;;;;;;;11.60;10.83;;;;;;;14.81;100.00;122311.06;5134834;27;20186;-64
2022/10/10 01:47:22;;;;;;;11.90;10.70;;;;;;;14.89;100.00;122661.25;5134907;27;20185;-63
2022/10/10 01:49:52;;;;;;;13.23;11.40;;;;;;;14.91;100.00;125668.88;5134601;27;20203;-64
2022/10/10 01:52:30;;;;;;;13.07;11.43;;;;;;;14.87;100.00;123990.50;5134890;27;20187;-63
2022/10/10 01:55:12;;;;;;;12.70;11.70;;;;;;;14.79;100.00;124642.06;5134750;27;20198;-64
2022/10/10 01:57:50;;;;;;;11.93;11.10;;;;;;;14.75;100.00;120630.72;5134665;27;20202;-63
2022/10/10 02:00:20;;;;;;;12.43;11.27;;;;;;;14.53;100.00;113264.53;5134527;27;20179;-64
2022/10/10 02:02:52;;;;;;;15.90;11.80;;;;;;;14.66;100.00;108636.84;5135077;27;20201;-63
2022/10/10 02:05:25;;;;;;;12.03;11.03;;;;;;;14.61;100.00;109957.16;5134596;27;20187;-63
2022/10/10 02:07:57;;;;;;;12.43;11.50;;;;;;;14.72;100.00;108647.94;5134642;27;20179;-62
2022/10/10 02:10:29;;;;;;;12.70;11.43;;;;;;;14.69;100.00;108974.50;5134558;27;20677;-63
2022/10/10 02:12:58;;;;;;;12.60;11.60;;;;;;;14.67;100.00;107642.47;5134314;27;20281;-63
2022/10/10 02:15:31;;;;;;;12.40;11.07;;;;;;;14.74;100.00;110312.78;5134277;27;20187;-63
2022/10/10 02:18:00;;;;;;;12.57;11.40;;;;;;;14.81;100.00;114649.16;5134299;27;20240;-63
2022/10/10 02:20:28;;;;;;;12.03;11.13;;;;;;;14.73;100.00;120626.63;5116470;27;20329;-63
2022/10/10 02:22:56;;;;;;;12.33;11.37;;;;;;;14.82;100.00;122313.16;5134588;27;20663;-64
2022/10/10 02:25:28;;;;;;;12.03;11.20;;;;;;;14.92;100.00;129010.16;5134440;27;20179;-63
2022/10/10 02:28:08;;;;;;;12.13;11.23;;;;;;;14.94;100.00;132692.53;5134310;27;20213;-63
2022/10/10 02:30:41;;;;;;;11.53;10.70;;;;;;;14.94;100.00;131020.22;5133871;27;20217;-63
2022/10/10 02:33:09;;;;;;;12.53;11.63;;;;;;;14.97;100.00;133033.88;5134029;27;20189;-63
2022/10/10 02:35:40;;;;;;;14.20;12.13;;;;;;;14.90;100.00;131011.34;5134055;27;20189;-63
2022/10/10 02:38:11;;;;;;;11.87;10.93;;;;;;;14.85;100.00;122652.88;5134128;27;20183;-64
2022/10/10 02:40:39;;;;;;;13.20;11.90;;;;;;;14.82;100.00;124314.69;5134005;27;20251;-63
2022/10/10 02:43:08;;;;;;;12.87;11.67;;;;;;;14.77;100.00;122302.78;5133875;27;20637;-62
2022/10/10 02:45:37;;;;;;;12.33;11.37;;;;;;;14.81;100.00;120977.38;5133589;27;20187;-64
2022/10/10 02:48:05;;;;;;;13.10;12.20;;;;;;;14.85;100.00;123653.66;5133580;27;20191;-63
2022/10/10 02:50:32;;;;;;;12.23;11.17;;;;;;;14.84;100.00;127323.47;5133862;27;20562;-63
2022/10/10 02:52:59;;;;;;;14.37;11.63;;;;;;;14.77;100.00;126640.53;5133858;27;20187;-64
2022/10/10 02:55:26;;;;;;;12.70;11.57;;;;;;;14.62;100.00;126274.56;5133741;27;20183;-64
2022/10/10 02:57:53;;;;;;;13.10;11.77;;;;;;;14.76;100.00;116302.53;5133166;27;20183;-63
2022/10/10 03:00:20;;;;;;;13.53;11.70;;;;;;;14.77;100.00;117637.31;5133698;27;20179;-62
2022/10/10 03:02:49;;;;;;;12.13;11.00;;;;;;;14.67;100.00;117284.44;5133244;27;20269;-64
2022/10/10 03:05:15;;;;;;;13.27;11.83;;;;;;;14.70;100.00;114295.06;5133599;27;20193;-63
2022/10/10 03:07:42;;;;;;;13.20;11.97;;;;;;;14.76;100.00;111978.56;5133487;27;20273;-64
2022/10/10 03:10:10;;;;;;;12.83;11.83;;;;;;;14.68;100.00;112295.81;5133861;27;20202;-63
2022/10/10 03:12:37;;;;;;;11.27;10.67;;;;;;;14.66;100.00;107972.69;5133177;27;20193;-63
2022/10/10 03:15:05;;;;;;;13.27;11.70;;;;;;;14.73;100.00;112304.38;5133074;27;20260;-64
2022/10/10 03:17:32;;;;;;;12.43;11.43;;;;;;;14.51;100.00;107945.19;5132970;27;20186;-63
2022/10/10 03:20:00;;;;;;;11.57;10.63;;;;;;;14.60;100.00;107297.69;5132968;27;20287;-62
2022/10/10 03:22:27;;;;;;;12.33;11.17;;;;;;;14.72;100.00;106323.69;5132950;27;20190;-63
2022/10/10 03:24:54;;;;;;;12.37;11.23;;;;;;;14.76;100.00;107991.03;5133045;27;20182;-62
2022/10/10 03:27:21;;;;;;;11.87;11.07;;;;;;;14.81;100.00;111322.16;5133241;27;20221;-63
2022/10/10 03:29:48;;;;;;;13.63;11.77;;;;;;;14.70;100.00;113962.41;5132823;27;20213;-63
2022/10/10 03:32:15;;;;;;;12.50;11.87;;;;;;;14.65;100.00;109631.47;5114959;28;20227;-63
2022/10/10 03:34:42;;;;;;;12.63;11.77;;;;;;;14.58;100.00;103977.13;5132972;28;20334;-64
2022/10/10 03:37:10;;;;;;;11.43;10.80;;;;;;;14.60;100.00;101328.50;5133610;28;20621;-63
2022/10/10 03:39:37;;;;;;;12.87;11.70;;;;;;;14.65;100.00;103656.94;5133246;28;20636;-63
2022/10/10 03:42:04;;;;;;;12.13;11.33;;;;;;;14.57;100.00;102649.09;5133152;28;20236;-64
2022/10/10 03:44:31;;;;;;;12.60;11.37;;;;;;;14.54;100.00;105959.34;5133633;28;20182;-62
2022/10/10 03:46:58;;;;;;;12.97;11.70;;;;;;;14.55;100.00;105629.38;5133054;28;20179;-63
2022/10/10 03:49:25;;;;;;;12.60;11.20;;;;;;;14.71;100.00;110971.84;5132914;28;20320;-64
2022/10/10 03:51:52;;;;;;;11.40;10.47;;;;;;;14.71;100.00;117957.38;5132972;28;20187;-63
2022/10/10 03:54:21;;;;;;;12.97;11.97;;;;;;;14.81;100.00;123978.91;5133055;28;20186;-62
2022/10/10 03:56:48;;;;;;;14.60;12.43;;;;;;;14.76;100.00;130647.16;5132985;28;20190;-62
2022/10/10 03:59:15;;;;;;;12.57;11.30;;;;;;;14.48;100.00;119911.31;5133174;28;20191;-63
2022/10/10 04:01:42;;;;;;;12.90;11.07;;;;;;;14.64;100.00;113618.22;5132852;28;20185;-63
2022/10/10 04:04:09;;;;;;;12.03;11.07;;;;;;;14.64;100.00;116946.53;5132899;28;20183;-64
2022/10/10 04:06:35;;;;;;;13.57;12.10;;;;;;;14.65;100.00;117280.44;5133056;28;20187;-63
2022/10/10 04:09:03;;;;;;;18.67;11.70;;;;;;;14.66;100.00;117281.44;5133280;27;20641;-64
2022/10/10 04:11:31;;;;;;;12.40;11.67;;;;;;;14.54;100.00;126257.44;5136169;27;20661;-63
2022/10/10 04:13:58;;;;;;;12.30;11.30;;;;;;;14.64;100.00;136306.22;5137265;27;20213;-63
2022/10/10 04:16:25;;;;;;;13.60;10.87;;;;;;;14.71;100.00;146261.38;5137191;27;20197;-62
2022/10/10 04:18:52;;;;;;;10.87;9.60;;;;;;;14.80;100.00;147657.16;5137211;27;20635;-63
2022/10/10 04:21:19;;;;;;;11.20;10.17;;;;;;;14.85;100.00;149770.91;5136640;27;20593;-63
2022/10/10 04:23:46;;;;;;;12.03;11.07;;;;;;;14.78;100.00;149753.16;5136702;27;20668;-63
2022/10/10 04:26:13;;;;;;;11.03;10.10;;;;;;;14.84;100.00;149767.13;5136562;27;20269;-62
2022/10/10 04:28:41;;;;;;;11.87;10.80;;;;;;;14.86;100.00;149773.44;5136542;27;20182;-63
2022/10/10 04:31:08;;;;;;;11.73;10.77;;;;;;;14.75;100.00;149745.56;5136242;27;20209;-63
2022/10/10 04:33:35;;;;;;;10.43;9.67;;;;;;;14.74;100.00;149741.75;5136244;27;20335;-62
2022/10/10 04:36:02;;;;;;;13.23;10.30;;;;;;;14.97;100.00;149801.38;5136175;27;20186;-63
2022/10/10 04:38:29;;;;;;;14.53;11.20;;;;;;;15.01;100.00;149811.53;5135997;27;20222;-63
2022/10/10 04:40:56;;;;;;;11.03;10.33;;;;;;;15.00;100.00;149808.97;5136382;27;20193;-63
2022/10/10 04:43:23;;;;;;;11.30;10.60;;;;;;;15.17;100.00;149849.56;5135848;27;20187;-63
2022/10/10 04:45:51;;;;;;;12.93;10.77;;;;;;;15.17;100.00;149849.56;5136099;27;20626;-63
2022/10/10 04:48:18;;;;;;;10.20;9.60;;;;;;;15.22;100.00;149862.25;5135643;27;20186;-62
2022/10/10 04:50:52;;;;;;;13.00;9.87;;;;;;;15.36;100.00;149899.03;5135782;27;20206;-63
2022/10/10 04:53:19;;;;;;;12.80;9.67;;;;;;;15.50;100.00;149933.34;5135795;27;20630;-63
2022/10/10 04:55:46;;;;;;;10.03;9.10;;;;;;;15.68;100.00;149979.03;5135526;27;20197;-63
2022/10/10 04:58:13;;;;;;;10.43;9.57;;;;;;;15.52;100.00;149939.72;5117571;27;20187;-63
2022/10/10 05:00:40;;;;;;;15.77;9.97;;;;;;;15.98;100.00;150055.19;5135477;27;20186;-63
2022/10/10 05:03:10;;;;;;;16.80;9.83;;;;;;;16.00;100.00;150058.97;5135813;27;20265;-63
2022/10/10 05:05:37;;;;;;;8.97;8.47;;;;;;;16.03;100.00;150065.34;5135545;27;20193;-63
2022/10/10 05:08:04;;;;;;;9.03;8.27;;;;;;;16.16;100.00;150098.38;5135615;27;20205;-63
2022/10/10 05:10:31;;;;;;;9.13;8.27;;;;;;;16.25;100.00;150122.44;5135360;27;20293;-63
2022/10/10 05:12:58;;;;;;;7.40;7.10;;;;;;;16.20;100.00;150109.78;5135258;27;20186;-62
2022/10/10 05:15:25;;;;;;;11.83;7.30;;;;;;;16.49;100.00;150182.16;5135335;27;20179;-63
2022/10/10 05:17:53;;;;;;;7.70;7.30;;;;;;;16.82;100.00;150266.00;5135245;27;20179;-57
2022/10/10 05:20:22;;;;;;;8.13;7.53;;;;;;;17.03;100.00;150318.09;5134897;27;20598;-57
2022/10/10 05:22:48;;;;;;;7.50;6.83;;;;;;;17.38;100.00;150405.75;5134723;27;20183;-58
2022/10/10 05:25:15;;;;;;;8.17;6.87;;;;;;;17.59;100.00;150457.91;5135339;27;20637;-58
2022/10/10 05:27:43;;;;;;;8.93;6.63;;;;;;;17.66;100.00;150476.97;5135087;27;20553;-62
2022/10/10 05:30:11;;;;;;;7.87;7.03;;;;;;;17.85;100.00;150524.00;5135014;27;20202;-62
2022/10/10 05:32:38;;;;;;;7.57;7.10;;;;;;;18.04;100.00;150571.00;5134621;27;20186;-63
2022/10/10 05:35:06;;;;;;;8.20;7.00;;;;;;;18.22;100.00;150616.78;5134699;27;20277;-63
2022/10/10 05:37:34;;;;;;;8.73;8.03;;;;;;;18.56;100.00;150703.31;5135117;27;20186;-59
2022/10/10 05:40:01;;;;;;;10.73;6.70;;;;;;;18.41;100.00;150663.88;5135395;27;20242;-61
2022/10/10 05:42:28;;;;;;;17.10;9.03;;;;;;;18.70;100.00;150738.94;5134966;27;20182;-64
2022/10/10 05:44:55;;;;;;;9.37;6.30;;;;;;;18.91;100.00;150789.81;5134164;27;20190;-62
2022/10/10 05:47:22;;;;;;;7.90;5.83;;;;;;;19.38;100.00;150908.16;5134624;27;20186;-63
2022/10/10 05:49:49;;;;;;;6.73;6.23;;;;;;;19.90;100.00;151040.53;5134658;27;20186;-64
2022/10/10 05:52:16;;;;;;;6.77;6.37;;;;;;;20.21;100.00;151118.22;5134297;27;20236;-63
2022/10/10 05:54:45;;;;;;;6.40;5.97;;;;;;;20.76;100.00;151257.06;5134552;27;20576;-64
2022/10/10 05:57:12;;;;;;;6.63;6.10;;;;;;;20.90;100.00;151291.47;5134342;27;20692;-64
2022/10/10 05:59:39;;;;;;;11.77;6.73;;;;;;;21.27;100.00;151384.50;5115708;27;20239;-64
2022/10/10 06:02:06;;;;;;;7.90;6.60;;;;;;;20.62;100.00;151220.16;5133853;27;20187;-63
2022/10/10 06:04:33;;;;;;;6.47;5.83;;;;;;;20.55;100.00;151203.56;5134146;27;20553;-63
2022/10/10 06:07:00;;;;;;;6.40;5.90;;;;;;;20.77;100.00;151258.34;5133784;27;20187;-63
2022/10/10 06:09:27;;;;;;;6.20;5.80;;;;;;;20.84;100.00;151276.16;5133758;27;20221;-64
2022/10/10 06:11:55;;;;;;;7.63;6.03;;;;;;;21.09;100.00;151339.84;5133566;27;20202;-65
2022/10/10 06:14:22;;;;;;;9.07;6.60;;;;;;;21.24;100.00;151378.16;5133873;27;20526;-64
2022/10/10 06:16:49;;;;;;;8.87;6.10;;;;;;;21.19;100.00;151365.41;5133956;27;20532;-64
2022/10/10 06:19:16;;;;;;;5.65;5.15;;;;;;;21.26;97.13;151383.22;5115501;27;20568;-64
2022/10/10 06:21:43;;;;;;;6.60;5.55;;;;;;;21.18;98.64;151362.84;5133401;27;20266;-64
2022/10/10 06:24:10;;;;;;;8.32;7.78;;;;;;;20.94;95.96;151301.66;5134069;27;20193;-64
2022/10/10 06:26:37;;;;;;;23.80;13.17;;;;;;;21.46;96.46;151431.69;5134009;27;20705;-63
2022/10/10 06:29:07;;;;;;;9.65;7.00;;;;;;;21.64;94.65;151477.56;5133836;27;20633;-62
2022/10/10 06:31:38;;;;;;;7.18;6.05;;;;;;;22.05;90.54;151582.13;5132987;27;20213;-63
2022/10/10 06:34:05;;;;;;;5.63;5.07;;;;;;;22.58;88.27;151714.72;5133270;27;20191;-64
2022/10/10 06:36:32;;;;;;;6.30;4.85;;;;;;;23.01;84.48;151824.47;5133835;27;20675;-66
2022/10/10 06:38:59;;;;;;;10.13;4.28;;;;;;;23.53;80.27;151954.69;5131946;27;20265;-63
2022/10/10 06:41:26;;;;;;;5.72;5.05;;;;;;;23.76;76.40;152013.41;5133329;27;20189;-66
2022/10/10 06:43:53;;;;;;;7.45;4.15;;;;;;;23.81;74.52;152024.84;5133393;27;20187;-67
2022/10/10 06:46:21;;;;;;;4.50;3.92;;;;;;;23.92;70.32;152052.97;5133468;27;20649;-66
2022/10/10 06:48:48;;;;;;;5.70;3.65;;;;;;;23.84;71.99;152033.84;5132655;27;20179;-67
2022/10/10 06:51:16;;;;;;;4.05;3.85;;;;;;;23.83;71.71;152030.00;5132154;27;20325;-66
2022/10/10 06:53:43;;;;;;;3.58;3.47;;;;;;;23.73;70.06;152005.72;5132801;27;20186;-64
2022/10/10 06:56:16;;;;;;;4.93;4.10;;;;;;;23.79;69.92;152021.06;5133585;27;20183;-64
2022/10/10 06:58:43;;;;;;;13.45;4.38;;;;;;;23.74;69.50;152008.28;5133545;27;20210;-65
2022/10/10 07:01:11;;;;;;;3.78;3.47;;;;;;;22.62;72.05;151724.94;5132041;27;20561;-65
2022/10/10 07:03:40;;;;;;;5.88;4.28;;;;;;;23.27;73.69;151888.28;5131268;27;20185;-64
2022/10/10 07:06:10;;;;;;;5.60;4.93;;;;;;;23.96;68.19;152063.19;5132583;27;20201;-64
2022/10/10 07:08:37;;;;;;;5.30;4.13;;;;;;;24.45;66.13;152188.34;5132464;27;20182;-64
2022/10/10 07:11:06;;;;;;;3.13;3.03;;;;;;;24.83;63.19;152284.13;5133606;27;20552;-64
2022/10/10 07:13:33;;;;;;;4.20;3.90;;;;;;;25.05;62.13;152337.81;5132153;27;20179;-65
2022/10/10 07:16:00;;;;;;;9.05;4.10;;;;;;;25.41;61.59;152429.84;5132693;27;20179;-64
2022/10/10 07:18:27;;;;;;;4.05;3.72;;;;;;;24.94;61.95;152311.00;5132754;27;20187;-65
2022/10/10 07:20:58;;;;;;;4.32;3.58;;;;;;;25.39;59.79;152425.97;5132513;27;20757;-65
2022/10/10 07:23:25;;;;;;;3.90;3.70;;;;;;;24.81;59.52;152279.03;5132583;27;20641;-65
2022/10/10 07:25:52;;;;;;;3.55;3.00;;;;;;;25.26;58.51;152391.47;5132859;27;20183;-64
2022/10/10 07:28:19;;;;;;;3.25;2.60;;;;;;;25.59;55.85;152475.84;5114084;27;20266;-65
2022/10/10 07:30:47;;;;;;;3.78;3.00;;;;;;;24.96;57.39;152316.09;5112288;28;20238;-64
2022/10/10 07:33:15;;;;;;;2.85;2.75;;;;;;;24.43;58.10;152183.25;5112463;28;20183;-64
2022/10/10 07:35:42;;;;;;;3.35;3.15;;;;;;;24.42;59.01;152179.41;5112651;28;20183;-64
2022/10/10 07:38:13;;;;;;;3.00;2.90;;;;;;;24.41;57.82;152176.84;5112291;28;20191;-65
2022/10/10 07:40:40;;;;;;;3.13;2.92;;;;;;;24.52;57.18;152206.25;5111904;28;20228;-64
2022/10/10 07:43:08;;;;;;;4.80;2.80;;;;;;;25.02;56.55;152331.44;5112222;28;20194;-65
2022/10/10 07:45:36;;;;;;;4.55;3.00;;;;;;;25.01;55.88;152330.16;5115982;28;20618;-65
2022/10/10 07:48:05;;;;;;;2.85;2.50;;;;;;;24.73;56.67;152258.59;5116424;28;20271;-66
2022/10/10 07:50:32;;;;;;;2.20;2.10;;;;;;;24.62;55.97;152229.19;5116222;28;20577;-65
2022/10/10 07:52:59;;;;;;;3.42;2.50;;;;;;;25.35;54.93;152414.47;5116731;28;20201;-65
2022/10/10 07:55:28;;;;;;;7.03;2.80;;;;;;;26.18;54.25;152625.41;5116280;28;20207;-64
2022/10/10 07:57:55;;;;;;;2.35;2.25;;;;;;;25.65;50.89;152491.22;5116154;28;20189;-65
2022/10/10 08:00:22;;;;;;;2.97;2.67;;;;;;;25.80;52.16;152528.28;5116532;28;20679;-63
2022/10/10 08:02:50;;;;;;;2.75;2.65;;;;;;;26.39;50.62;152676.63;5116159;28;20606;-66
2022/10/10 08:05:18;;;;;;;2.42;2.20;;;;;;;27.13;49.05;152865.94;5116576;28;20626;-65
2022/10/10 08:07:45;;;;;;;2.47;2.38;;;;;;;27.57;47.11;152977.28;5116328;28;20222;-65
2022/10/10 08:10:12;;;;;;;2.28;2.17;;;;;;;27.85;47.02;153046.38;5116930;28;20237;-65
2022/10/10 08:12:40;;;;;;;2.08;1.98;;;;;;;28.29;43.91;153159.06;5098044;28;20290;-65
2022/10/10 08:15:08;;;;;;;2.25;2.15;;;;;;;28.65;42.83;153248.66;5115852;28;20203;-65
2022/10/10 08:17:35;;;;;;;2.45;2.25;;;;;;;28.52;43.63;153217.94;5115772;28;20195;-65
2022/10/10 08:20:02;;;;;;;2.33;2.22;;;;;;;28.63;41.76;153244.84;5121459;27;20232;-66
2022/10/10 08:22:29;;;;;;;2.00;1.90;;;;;;;27.07;43.56;152849.31;5136389;27;20183;-65
2022/10/10 08:24:56;;;;;;;2.10;2.00;;;;;;;26.92;43.30;152810.91;5136987;27;20637;-64
2022/10/10 08:27:23;;;;;;;7.40;6.22;;;;;;;27.42;44.20;152937.53;5136248;27;20193;-62
2022/10/10 08:29:51;;;;;;;12.48;11.43;;;;;;;27.59;43.95;152982.38;5136014;27;20183;-63
2022/10/10 08:32:18;;;;;;;2.35;2.15;;;;;;;27.42;42.08;152938.84;5135919;27;20216;-65
2022/10/10 08:34:45;;;;;;;1.92;1.23;;;;;;;27.88;40.16;153055.31;5135822;27;20209;-66
2022/10/10 08:37:12;;;;;;;2.25;1.50;;;;;;;26.53;40.11;152712.38;5135694;27;20196;-66
2022/10/10 08:39:39;;;;;;;2.40;1.40;;;;;;;26.17;41.54;152622.88;5135973;27;20613;-67
2022/10/10 08:42:06;;;;;;;1.58;1.48;;;;;;;25.70;40.35;152504.00;5135446;27;20736;-65
2022/10/10 08:44:40;;;;;;;1.95;1.35;;;;;;;25.91;41.03;152557.69;5135900;27;20191;-66
2022/10/10 08:47:15;;;;;;;1.23;1.17;;;;;;;26.52;39.60;152709.88;5135418;27;20186;-65
2022/10/10 08:49:47;;;;;;;1.40;1.40;;;;;;;26.85;38.44;152794.31;5134094;27;20635;-65
2022/10/10 08:52:23;;;;;;;1.42;1.33;;;;;;;26.71;39.04;152758.44;5135712;27;20234;-65
2022/10/10 08:54:52;;;;;;;2.17;1.70;;;;;;;26.05;41.03;152592.19;5134014;27;20202;-66
2022/10/10 08:57:28;;;;;;;3.30;3.20;;;;;;;26.67;46.84;152749.50;5134523;27;20182;-65
2022/10/10 08:59:58;;;;;;;4.10;3.53;;;;;;;27.24;47.50;152892.81;5133977;27;20182;-65
2022/10/10 09:02:36;;;;;;;4.15;3.40;;;;;;;28.46;45.90;153202.59;5135660;27;20211;-65
2022/10/10 09:05:02;;;;;;;5.85;3.85;;;;;;;28.72;45.17;153266.66;5135502;27;20193;-66
2022/10/10 09:07:43;;;;;;;3.25;2.72;;;;;;;28.33;45.24;153169.31;5135113;27;20202;-66
2022/10/10 09:10:23;;;;;;;3.75;3.40;;;;;;;28.31;45.44;153164.16;5135201;27;20193;-65
2022/10/10 09:13:03;;;;;;;6.10;3.60;;;;;;;28.17;45.16;153127.06;5129640;27;20697;-66
2022/10/10 09:15:35;;;;;;;5.05;3.55;;;;;;;28.75;44.13;153274.34;5135150;27;20183;-66
2022/10/10 09:18:16;;;;;;;3.30;3.03;;;;;;;28.69;43.72;153258.91;5135330;27;20304;-66
2022/10/10 09:20:48;;;;;;;3.05;2.85;;;;;;;28.55;43.47;153225.66;5134879;27;20675;-65
2022/10/10 09:23:21;;;;;;;4.95;2.95;;;;;;;27.50;45.11;152958.06;5134177;27;20183;-65
2022/10/10 09:25:54;;;;;;;3.38;3.08;;;;;;;28.29;44.24;153157.78;5135045;27;20251;-65
2022/10/10 09:28:34;;;;;;;7.82;3.00;;;;;;;28.66;43.04;153251.22;5135094;27;20183;-65
2022/10/10 09:31:03;;;;;;;6.88;3.10;;;;;;;28.79;41.99;153284.56;5135061;27;20182;-66
2022/10/10 09:33:37;;;;;;;5.63;3.80;;;;;;;28.88;43.22;153307.63;5135092;27;20193;-65
2022/10/10 09:36:09;;;;;;;2.20;2.10;;;;;;;28.14;42.90;153121.94;5116713;27;20194;-64
2022/10/10 09:38:41;;;;;;;4.28;2.10;;;;;;;28.07;43.19;153102.69;5114072;28;20206;-67
2022/10/10 09:41:15;;;;;;;4.00;2.38;;;;;;;27.63;43.88;152991.34;5114073;28;20211;-65
2022/10/10 09:43:42;;;;;;;2.78;2.20;;;;;;;27.27;43.37;152900.47;5114154;28;20708;-64
2022/10/10 09:46:09;;;;;;;1.95;1.85;;;;;;;27.24;43.82;152894.03;5113911;28;20198;-64
2022/10/10 09:48:42;;;;;;;3.70;2.30;;;;;;;27.21;43.30;152886.38;5114105;28;20199;-66
2022/10/10 09:51:13;;;;;;;1.92;1.83;;;;;;;27.27;43.14;152900.47;5113895;28;20238;-64
2022/10/10 09:53:40;;;;;;;3.42;1.75;;;;;;;27.53;43.29;152967.06;5114357;28;20723;-65
2022/10/10 09:56:14;;;;;;;1.67;1.58;;;;;;;27.56;42.30;152974.72;5113763;28;20223;-64
2022/10/10 09:58:43;;;;;;;3.85;2.15;;;;;;;27.05;42.99;152844.19;5113336;28;20183;-64
2022/10/10 10:01:14;;;;;;;2.78;1.95;;;;;;;26.83;43.11;152790.41;5113527;28;20222;-65
2022/10/10 10:03:43;;;;;;;1.88;1.77;;;;;;;26.95;42.85;152819.84;5113340;28;20238;-65
2022/10/10 10:06:13;;;;;;;2.15;1.90;;;;;;;27.04;44.34;152841.59;5113131;28;20197;-64
2022/10/10 10:08:41;;;;;;;1.83;1.73;;;;;;;25.84;46.50;152538.50;5113296;28;20195;-63
2022/10/10 10:11:27;;;;;;;1.85;1.75;;;;;;;25.54;48.08;152463.09;5113208;28;20190;-64
2022/10/10 10:13:56;;;;;;;13.88;1.88;;;;;;;25.38;49.35;152422.13;5112888;28;20184;-63
2022/10/10 10:16:32;;;;;;;2.30;2.10;;;;;;;25.48;49.53;152449.00;5113091;28;20194;-64
2022/10/10 10:19:01;;;;;;;3.70;1.92;;;;;;;26.32;47.59;152661.25;5113068;28;20560;-64
2022/10/10 10:21:28;;;;;;;7.40;2.70;;;;;;;26.66;47.35;152746.94;5113068;28;20715;-64
2022/10/10 10:23:58;;;;;;;1.90;1.80;;;;;;;26.76;47.16;152771.22;5123926;27;20286;-63
2022/10/10 10:26:29;;;;;;;4.53;2.70;;;;;;;26.41;47.73;152683.00;5134026;27;20539;-63
2022/10/10 10:28:57;;;;;;;2.13;1.92;;;;;;;25.50;50.45;152451.56;5133098;27;20191;-61
2022/10/10 10:31:53;;;;;;;2.42;2.22;;;;;;;26.03;50.94;152585.78;5133447;27;20291;-64
2022/10/10 10:34:48;;;;;;;5.10;2.05;;;;;;;26.40;50.56;152680.41;5133593;27;20187;-64
2022/10/10 10:37:24;;;;;;;5.30;2.13;;;;;;;26.76;49.04;152771.22;5133449;27;20621;-65
2022/10/10 10:40:07;;;;;;;3.65;1.90;;;;;;;26.78;49.46;152777.59;5133603;27;20193;-63
2022/10/10 10:42:46;;;;;;;4.35;1.63;;;;;;;26.14;50.18;152613.94;5133303;27;20183;-64
2022/10/10 10:45:17;;;;;;;2.88;2.53;;;;;;;26.33;50.25;152662.53;5133034;27;20183;-63
2022/10/10 10:47:58;;;;;;;4.75;1.98;;;;;;;26.34;49.16;152665.09;5115137;27;20215;-65
2022/10/10 10:50:45;;;;;;;8.45;1.83;;;;;;;26.91;48.14;152808.34;5133171;27;20187;-63
2022/10/10 10:53:21;;;;;;;4.35;2.80;;;;;;;27.96;46.69;153074.56;5133122;27;20252;-64
2022/10/10 10:55:54;;;;;;;5.88;2.40;;;;;;;27.91;45.86;153063.03;5133009;27;20190;-63
2022/10/10 10:58:49;;;;;;;3.80;2.38;;;;;;;26.74;47.02;152767.38;5114648;27;20194;-64
2022/10/10 11:01:24;;;;;;;6.68;2.63;;;;;;;26.28;47.40;152649.75;5132999;27;20611;-63
2022/10/10 11:03:59;;;;;;;2.88;2.22;;;;;;;24.91;49.93;152303.31;5133263;27;20182;-63
2022/10/10 11:06:48;;;;;;;2.70;2.30;;;;;;;24.47;51.53;152192.19;5132950;27;20280;-63
2022/10/10 11:09:20;;;;;;;3.80;2.42;;;;;;;23.34;55.25;151906.16;5132666;27;20182;-62
2022/10/10 11:12:02;;;;;;;3.97;2.30;;;;;;;22.52;59.77;151699.44;5132616;27;20210;-62
2022/10/10 11:14:46;;;;;;;2.10;2.00;;;;;;;22.00;62.99;151569.38;5132485;27;20214;-64
2022/10/10 11:17:19;;;;;;;2.60;2.40;;;;;;;21.41;69.86;151421.50;5132814;27;20182;-62
2022/10/10 11:19:55;;;;;;;5.45;2.38;;;;;;;21.40;72.19;151418.94;5131932;27;20283;-63
2022/10/10 11:22:31;;;;;;;3.22;2.65;;;;;;;21.24;73.47;151378.16;5132708;27;20183;-63
2022/10/10 11:25:03;;;;;;;2.47;2.38;;;;;;;21.26;75.31;151383.22;5083923;28;20305;-63
2022/10/10 11:27:42;;;;;;;2.67;2.33;;;;;;;21.02;79.60;151322.03;5112103;28;20183;-64